Time;durP1;ratioP1;P1;durP2;ratioP2;P2;SDS_P1;SDS_P2;PMS_P1;PMS_P2;Temp;Humidity;BMP_temperature;BMP_pressure;BME280_temperature;BME280_humidity;BME280_pressure;Samples;Min_cycle;Max_cycle;Signal;HPM_P1;HPM_P2
2023/04/03 00:03:41;;;;;;;3.00;1.63;;;6.90;99.90;;;;;;10053122;28;20423;-64
2023/04/03 00:08:32;;;;;;;2.40;1.20;;;6.90;99.90;;;;;;10052035;28;20069;-67
2023/04/03 00:13:24;;;;;;;3.25;1.10;;;6.90;99.90;;;;;;10055190;28;20349;-66
2023/04/03 00:18:14;;;;;;;2.33;1.48;;;6.90;99.90;;;;;;10056245;28;20029;-65
2023/04/03 00:23:06;;;;;;;2.25;1.15;;;6.90;99.90;;;;;;10053937;28;20060;-69
2023/04/03 00:27:56;;;;;;;4.10;1.33;;;6.80;99.90;;;;;;10055845;28;20149;-64
2023/04/03 00:32:51;;;;;;;1.92;1.40;;;6.70;99.90;;;;;;10055402;28;20117;-73
2023/04/03 00:37:43;;;;;;;1.60;1.38;;;6.70;99.90;;;;;;10057139;28;20032;-70
2023/04/03 00:42:33;;;;;;;1.77;1.35;;;6.70;99.90;;;;;;10056771;28;20025;-71
2023/04/03 00:47:24;;;;;;;1.58;1.15;;;6.70;99.90;;;;;;10056067;28;20041;-73
2023/04/03 00:52:19;;;;;;;2.95;1.08;;;6.70;99.90;;;;;;10057423;28;20022;-63
2023/04/03 00:57:11;;;;;;;1.17;0.90;;;6.80;99.90;;;;;;10055001;28;20041;-64
2023/04/03 01:02:02;;;;;;;1.05;0.82;;;6.80;99.90;;;;;;10052387;28;20038;-72
2023/04/03 01:06:55;;;;;;;1.63;1.40;;;6.70;99.90;;;;;;10064788;28;20041;-63
2023/04/03 01:11:45;;;;;;;2.45;1.20;;;6.70;99.90;;;;;;10054998;28;20036;-73
2023/04/03 01:16:36;;;;;;;2.10;1.00;;;6.70;99.90;;;;;;10054739;28;20550;-70
2023/04/03 01:21:40;;;;;;;1.55;1.25;;;6.70;99.90;;;;;;10055671;28;20105;-73
2023/04/03 01:26:31;;;;;;;3.92;1.05;;;6.70;99.90;;;;;;10054882;28;20511;-73
2023/04/03 01:31:29;;;;;;;1.88;1.02;;;6.70;99.90;;;;;;10061958;28;20100;-72
2023/04/03 01:36:26;;;;;;;1.70;1.25;;;6.70;99.90;;;;;;10063132;28;20385;-63
2023/04/03 01:41:17;;;;;;;2.58;1.35;;;6.70;99.90;;;;;;10069904;28;20034;-63
2023/04/03 01:46:09;;;;;;;2.60;1.25;;;6.60;99.90;;;;;;10062423;28;20045;-67
2023/04/03 01:50:59;;;;;;;2.00;1.05;;;6.60;99.90;;;;;;10063540;28;20534;-63
2023/04/03 01:55:50;;;;;;;1.83;1.23;;;6.70;99.90;;;;;;10061060;28;20045;-62
2023/04/03 02:00:40;;;;;;;1.25;0.95;;;6.70;99.90;;;;;;10053459;28;20025;-62
2023/04/03 02:05:31;;;;;;;1.42;0.95;;;6.70;99.90;;;;;;10069308;28;20057;-63
2023/04/03 02:10:22;;;;;;;1.10;0.90;;;6.70;99.90;;;;;;10060964;28;20028;-63
2023/04/03 02:15:12;;;;;;;2.72;0.90;;;6.70;99.90;;;;;;10060333;28;20557;-63
2023/04/03 02:20:03;;;;;;;1.20;0.90;;;6.60;99.90;;;;;;10059577;28;20026;-62
2023/04/03 02:24:54;;;;;;;1.13;0.88;;;6.60;99.90;;;;;;10056847;28;20049;-63
2023/04/03 02:29:45;;;;;;;1.38;1.25;;;6.70;99.90;;;;;;10059603;28;20041;-62
2023/04/03 02:34:35;;;;;;;1.58;1.00;;;6.70;99.90;;;;;;10059725;28;20040;-63
2023/04/03 02:39:26;;;;;;;1.48;0.73;;;6.70;99.90;;;;;;10064181;28;20493;-62
2023/04/03 02:44:17;;;;;;;4.13;1.02;;;6.70;99.90;;;;;;10060323;28;20042;-65
2023/04/03 02:49:08;;;;;;;4.40;1.05;;;6.70;99.90;;;;;;10058736;28;20060;-63
2023/04/03 02:53:58;;;;;;;1.45;1.00;;;6.60;99.90;;;;;;10060939;28;20026;-64
2023/04/03 02:58:49;;;;;;;1.10;0.75;;;6.60;99.90;;;;;;10046985;28;20041;-66
2023/04/03 03:03:40;;;;;;;1.60;1.02;;;6.60;99.90;;;;;;10053605;28;20488;-62
2023/04/03 03:08:31;;;;;;;1.48;1.00;;;6.50;99.90;;;;;;10066481;28;20080;-63
2023/04/03 03:13:22;;;;;;;1.33;0.70;;;6.50;99.90;;;;;;10056834;28;20033;-63
2023/04/03 03:18:13;;;;;;;3.00;0.80;;;6.50;99.90;;;;;;10056191;28;20051;-64
2023/04/03 03:23:03;;;;;;;0.90;0.88;;;6.40;99.90;;;;;;10058961;28;20099;-63
2023/04/03 03:27:54;;;;;;;1.67;0.95;;;6.40;99.90;;;;;;10057391;28;20053;-65
2023/04/03 03:32:45;;;;;;;1.80;0.82;;;6.30;99.90;;;;;;10059652;28;20029;-64
2023/04/03 03:37:35;;;;;;;2.08;0.90;;;6.30;99.90;;;;;;10056892;28;20026;-64
2023/04/03 03:42:26;;;;;;;1.85;0.90;;;6.30;99.90;;;;;;10057449;28;20399;-65
2023/04/03 03:47:17;;;;;;;2.88;1.48;;;6.30;99.90;;;;;;10059416;28;20531;-63
2023/04/03 03:52:10;;;;;;;1.98;0.77;;;6.10;99.90;;;;;;10057607;28;20035;-61
2023/04/03 03:57:00;;;;;;;0.82;0.65;;;6.20;99.90;;;;;;10057167;28;20112;-65
2023/04/03 04:01:51;;;;;;;1.58;1.15;;;6.20;99.90;;;;;;10043640;28;20466;-61
2023/04/03 04:06:42;;;;;;;1.65;1.20;;;6.10;99.90;;;;;;10055578;28;20119;-67
2023/04/03 04:11:33;;;;;;;2.35;1.30;;;6.10;99.90;;;;;;10056346;28;20105;-66
2023/04/03 04:16:23;;;;;;;1.33;1.20;;;6.10;99.90;;;;;;10055452;28;20515;-63
2023/04/03 04:21:14;;;;;;;1.27;1.17;;;6.00;99.90;;;;;;10056204;28;20033;-62
2023/04/03 04:26:05;;;;;;;1.88;1.00;;;6.00;99.90;;;;;;10053360;28;20053;-69
2023/04/03 04:30:55;;;;;;;2.53;1.23;;;6.00;99.90;;;;;;10061553;28;20025;-65
2023/04/03 04:35:48;;;;;;;2.10;1.10;;;6.00;99.90;;;;;;10056053;28;20033;-70
2023/04/03 04:40:38;;;;;;;1.52;1.00;;;6.00;99.90;;;;;;10055952;28;20021;-68
2023/04/03 04:45:29;;;;;;;1.45;1.02;;;6.00;99.90;;;;;;10056923;28;20439;-70
2023/04/03 04:50:20;;;;;;;1.33;0.80;;;6.00;99.90;;;;;;10057370;28;20036;-73
2023/04/03 04:55:10;;;;;;;2.85;1.13;;;5.90;99.90;;;;;;10056332;28;20033;-70
2023/04/03 05:00:01;;;;;;;1.58;1.02;;;6.00;99.90;;;;;;10043194;28;20333;-65
2023/04/03 05:04:52;;;;;;;0.95;0.82;;;6.00;99.90;;;;;;10064899;28;20122;-66
2023/04/03 05:09:43;;;;;;;1.77;0.80;;;6.00;99.90;;;;;;10063238;28;20021;-65
2023/04/03 05:14:33;;;;;;;1.08;0.90;;;5.90;99.90;;;;;;10062893;28;20037;-65
2023/04/03 05:19:24;;;;;;;3.55;1.40;;;5.90;99.90;;;;;;10062493;28;20037;-62
2023/04/03 05:24:15;;;;;;;1.67;0.95;;;5.90;99.90;;;;;;10057851;28;20128;-66
2023/04/03 05:29:06;;;;;;;1.45;1.35;;;5.90;99.90;;;;;;10062139;28;20051;-69
2023/04/03 05:33:58;;;;;;;1.55;0.75;;;5.90;99.90;;;;;;10062760;28;20097;-65
2023/04/03 05:38:49;;;;;;;1.35;0.88;;;6.00;99.90;;;;;;10062544;28;20041;-64
2023/04/03 05:43:40;;;;;;;2.22;0.98;;;6.00;99.90;;;;;;10063604;28;20111;-62
2023/04/03 05:48:30;;;;;;;1.35;1.08;;;6.10;99.90;;;;;;10061407;28;20033;-67
2023/04/03 05:53:26;;;;;;;2.22;1.20;;;6.10;99.90;;;;;;10065539;28;20280;-68
2023/04/03 05:58:17;;;;;;;1.33;1.02;;;6.10;99.90;;;;;;10057516;28;20030;-65
2023/04/03 06:03:08;;;;;;;2.13;1.40;;;6.20;99.90;;;;;;10061132;28;20500;-65
2023/04/03 06:07:58;;;;;;;2.08;1.63;;;6.20;99.90;;;;;;10061032;28;20127;-65
2023/04/03 06:12:50;;;;;;;3.00;1.45;;;6.20;99.90;;;;;;10057481;28;20384;-62
2023/04/03 06:17:40;;;;;;;1.65;1.00;;;6.40;99.90;;;;;;10060849;28;20030;-63
2023/04/03 06:22:31;;;;;;;2.53;1.20;;;6.50;99.90;;;;;;10059258;28;20040;-63
2023/04/03 06:27:22;;;;;;;2.60;1.40;;;6.50;99.90;;;;;;10061211;28;20041;-67
2023/04/03 06:32:12;;;;;;;3.13;1.40;;;6.50;99.90;;;;;;10062359;28;20034;-63
2023/04/03 06:37:03;;;;;;;3.30;1.27;;;6.70;99.90;;;;;;10070473;28;20554;-79
2023/04/03 06:41:54;;;;;;;1.60;1.23;;;6.80;99.90;;;;;;10053413;28;20028;-73
2023/04/03 06:46:46;;;;;;;3.30;1.45;;;6.80;99.90;;;;;;10050458;28;20052;-72
2023/04/03 06:51:36;;;;;;;2.03;1.35;;;6.80;99.90;;;;;;10074930;28;20503;-73
2023/04/03 06:56:28;;;;;;;1.00;0.93;;;7.00;99.90;;;;;;10063073;28;20036;-70
2023/04/03 07:01:19;;;;;;;1.95;1.30;;;7.10;99.90;;;;;;10061746;28;20029;-68
2023/04/03 07:06:13;;;;;;;3.22;1.15;;;7.00;99.90;;;;;;10062873;28;20402;-68
2023/04/03 07:11:05;;;;;;;3.92;1.45;;;6.90;99.90;;;;;;10040028;28;20079;-67
2023/04/03 07:15:56;;;;;;;3.03;1.77;;;7.10;99.90;;;;;;10051901;28;20037;-77
2023/04/03 07:20:47;;;;;;;1.70;0.95;;;7.10;99.90;;;;;;10059911;28;20426;-66
2023/04/03 07:25:43;;;;;;;2.10;1.60;;;7.10;99.90;;;;;;10054089;28;20191;-63
2023/04/03 07:30:33;;;;;;;1.65;0.93;;;7.30;99.90;;;;;;10045951;28;20396;-74
2023/04/03 07:35:24;;;;;;;4.85;1.25;;;7.40;99.90;;;;;;10053707;28;20037;-67
2023/04/03 07:40:15;;;;;;;2.13;1.70;;;7.50;99.90;;;;;;10053831;28;20032;-68
2023/04/03 07:45:06;;;;;;;1.50;0.95;;;7.40;99.90;;;;;;10047914;28;20140;-67
2023/04/03 07:49:57;;;;;;;3.22;1.20;;;7.50;99.90;;;;;;10055396;28;20010;-62
2023/04/03 07:54:48;;;;;;;3.42;1.33;;;7.50;99.90;;;;;;10054370;28;20116;-64
2023/04/03 07:59:40;;;;;;;1.63;1.20;;;7.70;99.90;;;;;;10051503;28;20089;-64
2023/04/03 08:04:31;;;;;;;2.70;1.30;;;7.60;99.90;;;;;;10055319;28;20153;-65
2023/04/03 08:09:22;;;;;;;4.00;1.73;;;7.70;99.90;;;;;;10042127;28;20543;-71
2023/04/03 08:14:16;;;;;;;1.23;0.90;;;7.80;99.90;;;;;;10042839;28;20287;-71
2023/04/03 08:19:07;;;;;;;3.00;1.33;;;7.80;99.90;;;;;;10054652;28;20370;-68
2023/04/03 08:23:58;;;;;;;3.20;1.58;;;7.90;99.90;;;;;;10043710;28;20445;-66
2023/04/03 08:28:49;;;;;;;2.53;1.05;;;8.10;99.90;;;;;;10042917;28;20144;-69
2023/04/03 08:33:40;;;;;;;1.83;1.08;;;8.20;99.80;;;;;;10037756;28;20065;-69
2023/04/03 08:38:31;;;;;;;1.20;1.10;;;8.60;99.90;;;;;;10041807;28;20476;-69
2023/04/03 08:43:27;;;;;;;1.38;1.10;;;8.90;99.40;;;;;;10063066;28;20041;-69
2023/04/03 08:48:23;;;;;;;1.17;1.05;;;9.30;99.50;;;;;;10056051;28;20179;-71
2023/04/03 08:53:17;;;;;;;2.67;2.00;;;9.30;99.40;;;;;;10061129;28;20037;-66
2023/04/03 08:58:29;;;;;;;2.05;1.70;;;8.90;99.40;;;;;;10059716;28;20045;-65
2023/04/03 09:03:21;;;;;;;3.15;1.42;;;8.70;99.50;;;;;;10060676;28;20456;-70
2023/04/03 09:08:18;;;;;;;2.50;1.33;;;8.70;99.50;;;;;;10059609;28;20403;-61
2023/04/03 09:13:22;;;;;;;1.25;1.15;;;8.70;99.40;;;;;;10062562;28;20037;-62
2023/04/03 09:18:16;;;;;;;2.33;1.45;;;9.00;99.40;;;;;;10053790;28;20128;-68
2023/04/03 09:23:40;;;;;;;4.82;1.17;;;9.00;99.30;;;;;;10063814;28;20576;-68
2023/04/03 09:28:35;;;;;;;1.60;1.48;;;8.90;99.20;;;;;;10053690;28;20134;-70
2023/04/03 09:33:26;;;;;;;2.30;1.38;;;8.80;99.10;;;;;;10045509;28;20033;-62
2023/04/03 09:38:22;;;;;;;3.92;1.30;;;8.90;99.20;;;;;;10051423;28;20470;-61
2023/04/03 09:43:16;;;;;;;5.72;1.67;;;8.90;99.10;;;;;;10040527;28;20404;-64
2023/04/03 09:48:13;;;;;;;2.08;1.50;;;9.10;98.90;;;;;;10059850;28;20151;-70
2023/04/03 09:53:24;;;;;;;2.20;1.42;;;9.20;98.70;;;;;;10059940;28;20113;-70
2023/04/03 09:58:30;;;;;;;1.67;1.20;;;9.20;98.70;;;;;;10051407;28;20233;-70
2023/04/03 10:03:30;;;;;;;3.60;1.42;;;9.60;98.80;;;;;;10053516;28;20508;-66
2023/04/03 10:08:33;;;;;;;3.10;1.60;;;9.40;98.40;;;;;;10058265;28;20681;-68
2023/04/03 10:13:24;;;;;;;2.90;1.30;;;9.10;98.20;;;;;;10056497;28;20040;-67
2023/04/03 10:18:46;;;;;;;3.30;1.45;;;9.30;98.30;;;;;;10056040;28;20180;-67
2023/04/03 10:23:49;;;;;;;3.17;1.27;;;9.70;98.10;;;;;;10034889;28;20042;-69
2023/04/03 10:29:02;;;;;;;3.28;1.27;;;9.70;98.20;;;;;;10038473;28;20500;-73
2023/04/03 10:34:00;;;;;;;1.73;1.40;;;9.70;98.00;;;;;;10042971;28;20081;-66
2023/04/03 10:39:15;;;;;;;3.08;1.50;;;9.80;98.00;;;;;;10059247;28;20484;-68
2023/04/03 10:44:30;;;;;;;1.55;1.23;;;10.00;97.90;;;;;;10057666;28;20500;-68
2023/04/03 10:49:36;;;;;;;3.37;1.57;;;10.00;97.70;;;;;;10058118;28;20029;-66
2023/04/03 10:54:47;;;;;;;3.03;1.42;;;10.00;97.30;;;;;;10048373;28;20282;-67
2023/04/03 10:59:51;;;;;;;1.85;1.38;;;10.00;97.00;;;;;;10043805;28;20034;-65
2023/04/03 11:04:48;;;;;;;2.75;2.40;;;10.00;96.70;;;;;;10065082;28;20104;-66
2023/04/03 11:09:44;;;;;;;2.13;1.50;;;10.20;96.60;;;;;;10062094;28;20036;-66
2023/04/03 11:14:38;;;;;;;2.67;1.50;;;10.40;96.30;;;;;;10055427;28;20409;-67
2023/04/03 11:19:54;;;;;;;3.95;1.33;;;10.40;96.20;;;;;;10053098;28;20064;-66
2023/04/03 11:25:07;;;;;;;5.43;1.65;;;10.30;96.20;;;;;;10047874;28;20057;-66
2023/04/03 11:29:59;;;;;;;1.80;1.20;;;10.20;96.10;;;;;;10061402;28;20032;-66
2023/04/03 11:34:53;;;;;;;1.20;1.10;;;10.10;95.90;;;;;;10057777;28;20499;-67
2023/04/03 11:39:56;;;;;;;2.35;1.25;;;10.10;95.90;;;;;;10056223;28;20068;-65
2023/04/03 11:44:47;;;;;;;86.40;41.83;;;10.20;95.70;;;;;;10054098;28;20406;-67
2023/04/03 11:49:58;;;;;;;8.90;4.72;;;10.50;95.60;;;;;;10065624;28;20044;-70
2023/04/03 11:54:50;;;;;;;3.80;2.83;;;10.40;95.50;;;;;;10061541;28;20028;-75
2023/04/03 11:59:41;;;;;;;3.88;1.95;;;10.50;95.20;;;;;;10035624;28;20068;-72
2023/04/03 12:04:32;;;;;;;2.63;1.60;;;10.60;95.10;;;;;;10034036;28;20041;-73
2023/04/03 12:09:26;;;;;;;3.30;1.67;;;10.80;95.00;;;;;;10048385;28;20404;-72
2023/04/03 12:14:18;;;;;;;6.88;2.05;;;10.90;94.80;;;;;;10047152;28;20030;-73
2023/04/03 12:19:15;;;;;;;4.80;1.58;;;11.10;94.90;;;;;;10040285;28;20040;-69
2023/04/03 12:24:09;;;;;;;2.10;1.33;;;11.10;94.60;;;;;;10050336;28;20111;-73
2023/04/03 12:29:13;;;;;;;1.70;1.10;;;11.20;94.50;;;;;;10045317;28;20041;-70
2023/04/03 12:34:33;;;;;;;3.70;1.40;;;11.10;94.30;;;;;;10041821;28;20503;-72
2023/04/03 12:39:45;;;;;;;2.28;1.13;;;11.00;93.90;;;;;;10041138;28;20046;-74
2023/04/03 12:45:08;;;;;;;2.22;1.48;;;10.90;93.70;;;;;;10052306;28;20507;-67
2023/04/03 12:50:00;;;;;;;2.03;1.27;;;10.60;93.50;;;;;;10041511;28;20065;-68
2023/04/03 12:54:52;;;;;;;2.65;1.42;;;10.60;93.50;;;;;;10047765;28;20503;-70
2023/04/03 12:59:47;;;;;;;3.35;1.70;;;10.40;93.20;;;;;;10037937;28;20075;-70
2023/04/03 13:04:38;;;;;;;2.05;1.10;;;10.70;93.20;;;;;;10052010;28;20034;-75
2023/04/03 13:09:32;;;;;;;1.60;0.98;;;10.80;92.90;;;;;;10036666;28;20068;-72
2023/04/03 13:14:26;;;;;;;1.80;1.40;;;11.30;92.90;;;;;;10039128;28;20025;-72
2023/04/03 13:19:17;;;;;;;2.42;1.30;;;11.60;92.80;;;;;;10048395;28;20029;-69
2023/04/03 13:24:09;;;;;;;3.22;1.40;;;11.30;92.60;;;;;;10051633;28;20085;-70
2023/04/03 13:29:06;;;;;;;2.85;1.08;;;11.10;92.70;;;;;;10054478;28;20508;-69
2023/04/03 13:34:02;;;;;;;2.35;1.30;;;11.10;92.60;;;;;;10051588;28;20057;-67
2023/04/03 13:39:13;;;;;;;2.30;1.30;;;11.10;92.50;;;;;;10047047;28;20100;-65
2023/04/03 13:44:22;;;;;;;79.20;37.72;;;11.30;92.40;;;;;;10049384;28;20346;-70
2023/04/03 13:49:24;;;;;;;7.63;4.55;;;11.40;92.10;;;;;;10064826;28;20019;-71
2023/04/03 13:54:42;;;;;;;7.22;2.63;;;11.70;92.00;;;;;;10068616;28;20106;-68
2023/04/03 13:59:35;;;;;;;4.28;1.83;;;11.60;91.40;;;;;;10052239;28;20499;-68
2023/04/03 14:04:32;;;;;;;2.67;1.67;;;11.40;91.20;;;;;;10073341;28;20045;-71
2023/04/03 14:09:26;;;;;;;3.10;2.00;;;11.40;91.70;;;;;;10050365;28;20039;-69
2023/04/03 14:14:23;;;;;;;4.82;1.20;;;11.30;91.20;;;;;;10062852;28;20029;-69
2023/04/03 14:19:19;;;;;;;3.28;1.30;;;11.10;90.80;;;;;;10064032;28;20170;-69
2023/04/03 14:24:11;;;;;;;3.72;1.60;;;11.00;90.80;;;;;;10063610;28;20047;-68
2023/04/03 14:29:02;;;;;;;4.90;1.65;;;10.80;90.70;;;;;;10058917;28;20116;-67
2023/04/03 14:33:53;;;;;;;3.30;1.05;;;10.50;90.80;;;;;;10049305;28;20120;-77
2023/04/03 14:38:45;;;;;;;3.15;1.17;;;10.50;90.80;;;;;;10054119;28;20029;-68
2023/04/03 14:43:35;;;;;;;2.17;0.85;;;10.40;90.70;;;;;;10046110;28;20037;-65
2023/04/03 14:48:28;;;;;;;3.90;1.60;;;10.30;90.80;;;;;;10051980;28;20049;-72
2023/04/03 14:53:22;;;;;;;2.67;0.95;;;11.10;90.80;;;;;;10054410;28;20103;-69
2023/04/03 14:58:18;;;;;;;2.17;1.10;;;11.20;90.80;;;;;;10046944;28;20095;-69
2023/04/03 15:03:18;;;;;;;1.80;1.05;;;11.10;90.90;;;;;;10037084;28;20519;-70
2023/04/03 15:08:19;;;;;;;1.10;1.00;;;10.60;90.90;;;;;;10044220;28;20048;-69
2023/04/03 15:13:12;;;;;;;6.72;1.33;;;10.50;91.00;;;;;;10036684;28;20030;-71
2023/04/03 15:18:04;;;;;;;1.17;0.93;;;10.40;91.10;;;;;;10052949;28;20018;-71
2023/04/03 15:22:56;;;;;;;1.90;1.27;;;10.20;90.90;;;;;;10048835;28;20060;-71
2023/04/03 15:27:47;;;;;;;4.10;1.15;;;10.00;90.90;;;;;;10044130;28;20038;-69
2023/04/03 15:32:37;;;;;;;3.38;1.30;;;10.00;90.80;;;;;;10048330;28;20033;-71
2023/04/03 15:37:28;;;;;;;2.70;1.20;;;9.90;90.80;;;;;;10041611;28;20037;-71
2023/04/03 15:42:19;;;;;;;2.35;1.42;;;10.10;90.90;;;;;;10044407;28;20508;-71
2023/04/03 15:47:10;;;;;;;2.38;1.27;;;10.30;90.60;;;;;;10044721;28;20048;-71
2023/04/03 15:52:00;;;;;;;2.17;1.05;;;11.60;89.70;;;;;;10051881;28;20022;-70
2023/04/03 15:56:52;;;;;;;1.98;0.98;;;11.40;90.20;;;;;;10045997;28;20063;-69
2023/04/03 16:01:43;;;;;;;1.70;1.00;;;11.20;90.30;;;;;;10039516;28;20075;-68
2023/04/03 16:06:34;;;;;;;1.88;1.40;;;11.20;90.30;;;;;;10045052;28;20029;-70
2023/04/03 16:11:25;;;;;;;2.28;1.45;;;11.00;89.90;;;;;;10050146;28;20026;-67
2023/04/03 16:16:16;;;;;;;1.88;1.35;;;11.20;89.70;;;;;;10038863;28;20112;-72
2023/04/03 16:21:08;;;;;;;43.50;25.77;;;11.30;89.30;;;;;;10061864;28;20419;-68
2023/04/03 16:25:59;;;;;;;10.70;6.35;;;11.20;89.40;;;;;;10057893;28;20136;-69
2023/04/03 16:30:49;;;;;;;5.10;2.30;;;10.80;89.40;;;;;;10064891;28;20231;-67
2023/04/03 16:35:41;;;;;;;3.47;2.22;;;10.60;89.80;;;;;;10059519;28;20033;-69
2023/04/03 16:40:33;;;;;;;2.47;1.40;;;10.30;89.50;;;;;;10057482;28;20052;-67
2023/04/03 16:45:24;;;;;;;3.40;1.58;;;10.10;89.70;;;;;;10052653;28;20053;-70
2023/04/03 16:50:15;;;;;;;2.13;1.30;;;9.90;89.60;;;;;;10057530;28;20022;-72
2023/04/03 16:55:07;;;;;;;1.88;1.10;;;9.70;89.40;;;;;;10058675;28;20037;-71
2023/04/03 16:59:58;;;;;;;2.03;0.90;;;9.70;89.00;;;;;;10058165;28;20499;-69
2023/04/03 17:04:48;;;;;;;1.33;1.10;;;9.80;88.80;;;;;;10068989;28;20117;-70
2023/04/03 17:09:39;;;;;;;2.60;1.13;;;12.30;86.90;;;;;;10070809;28;20124;-70
2023/04/03 17:14:30;;;;;;;2.47;0.70;;;11.00;87.50;;;;;;10061476;28;20327;-71
2023/04/03 17:19:22;;;;;;;2.30;1.00;;;10.20;88.40;;;;;;10064514;28;20029;-70
2023/04/03 17:24:14;;;;;;;3.33;1.45;;;9.80;88.70;;;;;;10053357;28;20349;-69
2023/04/03 17:29:06;;;;;;;1.50;0.98;;;9.70;88.70;;;;;;10056393;28;20468;-68
2023/04/03 17:33:56;;;;;;;2.05;1.08;;;9.50;88.60;;;;;;10062221;28;20029;-69
2023/04/03 17:38:50;;;;;;;3.55;1.05;;;9.40;88.60;;;;;;10061594;28;20052;-68
2023/04/03 17:43:41;;;;;;;2.25;0.85;;;9.20;88.50;;;;;;10062423;28;20037;-68
2023/04/03 17:48:33;;;;;;;1.88;1.20;;;9.00;88.40;;;;;;10060979;28;20041;-69
2023/04/03 17:53:26;;;;;;;1.63;1.10;;;8.90;88.40;;;;;;10063677;28;20029;-69
2023/04/03 17:58:16;;;;;;;2.20;1.27;;;8.90;88.30;;;;;;10045866;28;20299;-69
2023/04/03 18:03:07;;;;;;;4.03;1.98;;;8.80;88.40;;;;;;10036739;28;20387;-68
2023/04/03 18:08:00;;;;;;;4.97;1.65;;;8.60;88.20;;;;;;10057218;28;20034;-69
2023/04/03 18:12:52;;;;;;;3.33;1.42;;;8.60;88.20;;;;;;10060594;28;20010;-67
2023/04/03 18:17:43;;;;;;;2.35;1.40;;;8.50;88.20;;;;;;10056207;28;20519;-69
2023/04/03 18:22:34;;;;;;;2.85;1.20;;;8.40;88.30;;;;;;10048483;28;20057;-67
2023/04/03 18:27:26;;;;;;;3.55;1.80;;;8.30;88.30;;;;;;10048239;28;20049;-72
2023/04/03 18:32:18;;;;;;;2.50;1.23;;;8.30;88.30;;;;;;10055944;28;20120;-69
2023/04/03 18:37:09;;;;;;;1.73;1.00;;;8.20;88.40;;;;;;10056310;28;20116;-64
2023/04/03 18:42:07;;;;;;;3.60;1.48;;;8.10;88.60;;;;;;10060092;28;20036;-66
2023/04/03 18:46:58;;;;;;;2.60;1.50;;;8.20;88.40;;;;;;10058326;28;20131;-69
2023/04/03 18:51:49;;;;;;;2.65;1.10;;;8.20;88.50;;;;;;10052127;28;20069;-66
2023/04/03 18:56:40;;;;;;;133.73;60.55;;;8.10;88.60;;;;;;10040995;28;20037;-69
2023/04/03 19:01:32;;;;;;;125.22;67.93;;;8.30;88.40;;;;;;10054259;28;20494;-66
2023/04/03 19:06:23;;;;;;;20.20;10.75;;;8.40;88.40;;;;;;10066023;28;20033;-66
2023/04/03 19:11:13;;;;;;;11.00;5.85;;;8.20;88.70;;;;;;10055051;28;20480;-66
2023/04/03 19:16:04;;;;;;;8.75;4.05;;;8.10;88.90;;;;;;10052493;28;20535;-65
2023/04/03 19:20:56;;;;;;;5.18;2.80;;;8.00;89.30;;;;;;10053647;28;20040;-65
2023/04/03 19:25:55;;;;;;;4.38;2.25;;;7.90;89.30;;;;;;10051386;28;20137;-66
2023/04/03 19:30:47;;;;;;;6.57;2.28;;;7.80;90.00;;;;;;10056730;28;20057;-65
2023/04/03 19:35:40;;;;;;;3.75;1.50;;;7.70;89.50;;;;;;10057257;28;20034;-65
2023/04/03 19:40:32;;;;;;;4.70;2.10;;;7.60;89.60;;;;;;10055684;28;20029;-64
2023/04/03 19:45:25;;;;;;;2.20;1.90;;;7.50;89.90;;;;;;10056582;28;20114;-66
2023/04/03 19:50:15;;;;;;;4.50;1.48;;;7.50;90.00;;;;;;10056828;28;20284;-66
2023/04/03 19:55:07;;;;;;;2.00;1.38;;;7.30;90.10;;;;;;10056568;28;20618;-66
2023/04/03 19:59:57;;;;;;;5.32;1.60;;;7.40;90.20;;;;;;10053637;28;20504;-65
2023/04/03 20:04:48;;;;;;;2.42;1.45;;;7.30;90.10;;;;;;10045727;28;20124;-67
2023/04/03 20:09:38;;;;;;;1.50;1.00;;;7.40;90.20;;;;;;10039348;28;20039;-64
2023/04/03 20:14:30;;;;;;;1.80;1.35;;;7.30;90.10;;;;;;10047424;28;20029;-65
2023/04/03 20:19:22;;;;;;;2.47;0.95;;;7.30;90.10;;;;;;10057225;28;20494;-66
2023/04/03 20:24:12;;;;;;;2.38;1.10;;;7.30;90.00;;;;;;10053917;28;20439;-66
2023/04/03 20:29:03;;;;;;;2.55;1.42;;;7.30;89.90;;;;;;10056411;28;20041;-66
2023/04/03 20:33:55;;;;;;;3.70;1.20;;;7.20;89.80;;;;;;10054769;28;20033;-65
2023/04/03 20:38:46;;;;;;;3.45;1.77;;;7.20;89.80;;;;;;10055568;28;20394;-65
2023/04/03 20:43:38;;;;;;;2.47;1.00;;;7.10;89.80;;;;;;10056575;28;20030;-65
2023/04/03 20:48:30;;;;;;;1.60;0.80;;;7.10;89.70;;;;;;10055553;28;20041;-65
2023/04/03 20:53:21;;;;;;;1.70;0.88;;;7.00;89.70;;;;;;10057184;28;20073;-64
2023/04/03 20:58:12;;;;;;;1.98;1.33;;;7.00;89.60;;;;;;10050735;28;20092;-65
2023/04/03 21:03:03;;;;;;;2.05;1.33;;;7.00;89.60;;;;;;10046719;28;20025;-72
2023/04/03 21:08:32;;;;;;;1.83;1.10;;;6.90;89.60;;;;;;10040551;28;20034;-68
2023/04/03 21:14:00;;;;;;;64.68;26.67;;;6.90;89.70;;;;;;10064461;28;20130;-73
2023/04/03 21:19:00;;;;;;;11.20;6.43;;;7.00;89.50;;;;;;10055077;28;20029;-73
2023/04/03 21:23:53;;;;;;;9.38;3.47;;;6.90;89.50;;;;;;10062619;28;20442;-72
2023/04/03 21:28:45;;;;;;;5.18;2.35;;;6.80;89.60;;;;;;10062198;28;20045;-72
2023/04/03 21:33:36;;;;;;;2.97;1.50;;;6.70;89.60;;;;;;10056158;28;20029;-72
2023/04/03 21:38:27;;;;;;;2.63;1.42;;;6.70;89.60;;;;;;10058753;28;20049;-69
2023/04/03 21:43:17;;;;;;;5.97;1.67;;;6.60;89.60;;;;;;10066640;28;20523;-73
2023/04/03 21:48:08;;;;;;;2.40;1.48;;;6.50;89.60;;;;;;10075034;28;20565;-71
2023/04/03 21:53:00;;;;;;;8.57;2.13;;;6.40;89.70;;;;;;10066312;28;20026;-68
2023/04/03 21:57:52;;;;;;;4.13;1.70;;;6.40;89.70;;;;;;10060068;28;20418;-68
2023/04/03 22:02:42;;;;;;;2.55;1.33;;;6.30;89.80;;;;;;10073055;28;20025;-70
2023/04/03 22:07:33;;;;;;;2.78;1.30;;;6.30;90.00;;;;;;10077701;28;20044;-70
2023/04/03 22:12:24;;;;;;;2.78;1.50;;;6.20;90.00;;;;;;10071893;28;20036;-70
2023/04/03 22:17:15;;;;;;;1.35;1.10;;;6.20;90.10;;;;;;10066393;28;20037;-73
2023/04/03 22:22:06;;;;;;;4.20;1.38;;;6.10;90.10;;;;;;10063527;28;20026;-70
2023/04/03 22:26:57;;;;;;;2.25;1.60;;;6.10;90.20;;;;;;10067172;28;20049;-71
2023/04/03 22:31:47;;;;;;;3.50;1.20;;;6.10;90.20;;;;;;10064336;28;20034;-68
2023/04/03 22:36:38;;;;;;;3.53;1.15;;;6.00;90.30;;;;;;10063370;28;20029;-71
2023/04/03 22:41:28;;;;;;;2.60;1.52;;;5.90;90.30;;;;;;10060270;28;20029;-72
2023/04/03 22:46:19;;;;;;;2.72;1.00;;;5.90;90.40;;;;;;10060109;28;20285;-68
2023/04/03 22:51:11;;;;;;;1.92;0.93;;;5.80;90.50;;;;;;10058062;28;20025;-66
2023/04/03 22:56:04;;;;;;;3.60;0.88;;;5.80;90.50;;;;;;10052645;28;20137;-69
2023/04/03 23:01:09;;;;;;;3.13;1.27;;;5.70;90.60;;;;;;10045470;28;20032;-68
2023/04/03 23:06:01;;;;;;;4.88;1.42;;;5.70;90.60;;;;;;10068267;28;20067;-68
2023/04/03 23:10:56;;;;;;;0.85;0.73;;;5.60;90.70;;;;;;10057198;28;20039;-75
2023/04/03 23:15:58;;;;;;;1.58;0.80;;;5.60;90.80;;;;;;10057918;28;20099;-72
2023/04/03 23:20:53;;;;;;;1.20;0.90;;;5.50;90.80;;;;;;10056860;28;20144;-75
2023/04/03 23:25:44;;;;;;;1.07;0.97;;;5.50;90.90;;;;;;10055401;28;20529;-69
2023/04/03 23:30:35;;;;;;;1.42;0.80;;;5.50;91.00;;;;;;10064815;28;20136;-72
2023/04/03 23:35:25;;;;;;;1.55;1.00;;;5.50;90.90;;;;;;10055731;28;20026;-68
2023/04/03 23:40:17;;;;;;;2.30;1.13;;;5.40;91.00;;;;;;10057232;28;20038;-67
2023/04/03 23:45:08;;;;;;;3.38;1.17;;;5.30;91.20;;;;;;10055012;28;20306;-70
2023/04/03 23:49:59;;;;;;;2.67;0.95;;;5.30;91.10;;;;;;10057354;28;20105;-70
2023/04/03 23:54:49;;;;;;;2.58;0.98;;;5.20;91.30;;;;;;10061424;28;20112;-69
2023/04/03 23:59:40;;;;;;;2.15;1.33;;;5.20;91.40;;;;;;10048385;28;20065;-68
